Humidity-temperature Sensor

Selected Measurement Type: Relative Humidity

 
Relative Humidity [%]     6 entries per hour
Showing data from 9/26/2022 (00:00:00 Z) to 9/25/2022 (00:01:00 Z)
Previous Next [ Day | 3-Days | 7-Days ]
First Last
Prev [ Day | 3-Days | 7-Days ] Next
First Last

Start Time:     :
End Time:     :     
Time (in GMT) :00 :50 :40 :30 :20 :10
Previous Next [ Day | 3-Days | 7-Days ]
First Last
Prev [ Day | 3-Days | 7-Days ] Next
First Last


123 => good data
MM => data is determined as missing
-- => data not received/configured
Back to Top Back to Top
9/26/2022 00:00 to 23:10 93.32 93.40 93.28 93.30 92.79 92.73
9/25/2022 23:00 to 22:10 92.93 92.87 92.91 92.43 92.03 92.99
9/25/2022 22:00 to 21:10 94.53 94.95 94.97 95.05 95.30 95.14
9/25/2022 21:00 to 20:10 94.91 94.53 93.92 93.30 93.48 93.80
9/25/2022 20:00 to 19:10 93.94 93.54 93.62 93.40 93.54 93.66
9/25/2022 19:00 to 18:10 94.49 95.56 96.43 97.18 97.34 97.48
9/25/2022 18:00 to 17:10 97.24 96.89 97.30 97.40 97.94 98.04
9/25/2022 17:00 to 16:10 97.03 95.46 95.22 95.10 95.01 94.73
9/25/2022 16:00 to 15:10 94.57 94.97 95.92 96.33 96.35 95.98
9/25/2022 15:00 to 14:10 96.13 96.04 96.00 96.35 96.81 98.21
9/25/2022 14:00 to 13:10 98.71 98.37 98.35 98.53 98.91 99.34
9/25/2022 13:00 to 12:10 99.36 99.28 99.13 98.93 98.95 99.24
9/25/2022 12:00 to 11:10 99.24 98.55 97.96 97.48 97.20 97.20
9/25/2022 11:00 to 10:10 97.66 98.15 98.41 98.45 98.45 98.69
9/25/2022 10:00 to 9:10 99.11 98.61 98.33 98.10 97.94 97.74
9/25/2022 09:00 to 8:10 97.60 97.44 97.48 97.40 97.24 97.26
9/25/2022 08:00 to 7:10 97.36 97.40 97.30 97.26 97.24 97.44
9/25/2022 07:00 to 6:10 97.64 97.80 98.02 98.33 98.10 97.80
9/25/2022 06:00 to 5:10 97.03 96.25 96.02 96.31 96.59 97.18
9/25/2022 05:00 to 4:10 97.86 98.19 96.89 96.87 96.77 96.89
9/25/2022 04:00 to 3:10 96.89 96.99 96.89 96.97 97.20 97.78
9/25/2022 03:00 to 2:10 98.39 98.79 98.85 98.71 97.94 94.19
9/25/2022 02:00 to 1:10 93.50 94.15 93.84 93.08 92.21 92.03
9/25/2022 01:00 to 0:10 92.25 93.86 96.00 96.33 94.61 94.59